sensor_id;sensor_type;location;lat;lon;timestamp;P1;durP1;ratioP1;P2;durP2;ratioP2
42110;SDS011;27766;52.174;5.456;2023-11-19T00:01:39;14.77;;;4.70;;
42110;SDS011;27766;52.174;5.456;2023-11-19T00:04:07;12.45;;;5.63;;
42110;SDS011;27766;52.174;5.456;2023-11-19T00:06:35;8.43;;;4.35;;
42110;SDS011;27766;52.174;5.456;2023-11-19T00:09:02;19.05;;;5.75;;
42110;SDS011;27766;52.174;5.456;2023-11-19T00:11:30;13.40;;;4.10;;
42110;SDS011;27766;52.174;5.456;2023-11-19T00:13:58;13.68;;;4.22;;
42110;SDS011;27766;52.174;5.456;2023-11-19T00:16:25;10.48;;;5.13;;
42110;SDS011;27766;52.174;5.456;2023-11-19T00:18:52;13.70;;;4.40;;
42110;SDS011;27766;52.174;5.456;2023-11-19T00:21:20;9.15;;;3.67;;
42110;SDS011;27766;52.174;5.456;2023-11-19T00:23:47;18.23;;;3.83;;
42110;SDS011;27766;52.174;5.456;2023-11-19T00:26:14;15.15;;;3.65;;
42110;SDS011;27766;52.174;5.456;2023-11-19T00:28:41;13.30;;;3.72;;
42110;SDS011;27766;52.174;5.456;2023-11-19T00:31:09;12.70;;;3.63;;
42110;SDS011;27766;52.174;5.456;2023-11-19T00:33:37;10.90;;;4.07;;
42110;SDS011;27766;52.174;5.456;2023-11-19T00:36:16;11.57;;;3.58;;
42110;SDS011;27766;52.174;5.456;2023-11-19T00:38:43;15.60;;;4.15;;
42110;SDS011;27766;52.174;5.456;2023-11-19T00:41:10;10.63;;;3.78;;
42110;SDS011;27766;52.174;5.456;2023-11-19T00:43:38;12.65;;;3.85;;
42110;SDS011;27766;52.174;5.456;2023-11-19T00:46:07;18.52;;;5.40;;
42110;SDS011;27766;52.174;5.456;2023-11-19T00:48:34;13.13;;;4.07;;
42110;SDS011;27766;52.174;5.456;2023-11-19T00:51:01;11.30;;;4.00;;
42110;SDS011;27766;52.174;5.456;2023-11-19T00:53:29;13.88;;;4.32;;
42110;SDS011;27766;52.174;5.456;2023-11-19T00:55:57;8.05;;;3.20;;
42110;SDS011;27766;52.174;5.456;2023-11-19T00:58:25;12.68;;;4.18;;
42110;SDS011;27766;52.174;5.456;2023-11-19T01:00:52;16.95;;;3.78;;
42110;SDS011;27766;52.174;5.456;2023-11-19T01:03:20;11.57;;;3.75;;
42110;SDS011;27766;52.174;5.456;2023-11-19T01:05:47;11.45;;;4.38;;
42110;SDS011;27766;52.174;5.456;2023-11-19T01:08:14;22.40;;;4.03;;
42110;SDS011;27766;52.174;5.456;2023-11-19T01:10:42;10.18;;;3.88;;
42110;SDS011;27766;52.174;5.456;2023-11-19T01:13:10;11.43;;;4.05;;
42110;SDS011;27766;52.174;5.456;2023-11-19T01:15:37;18.33;;;4.15;;
42110;SDS011;27766;52.174;5.456;2023-11-19T01:18:05;16.50;;;4.35;;
42110;SDS011;27766;52.174;5.456;2023-11-19T01:20:33;24.45;;;5.40;;
42110;SDS011;27766;52.174;5.456;2023-11-19T01:23:01;13.55;;;3.92;;
42110;SDS011;27766;52.174;5.456;2023-11-19T01:25:28;22.02;;;4.57;;
42110;SDS011;27766;52.174;5.456;2023-11-19T01:27:55;9.88;;;4.25;;
42110;SDS011;27766;52.174;5.456;2023-11-19T01:30:25;22.42;;;4.85;;
42110;SDS011;27766;52.174;5.456;2023-11-19T01:32:53;18.67;;;5.18;;
42110;SDS011;27766;52.174;5.456;2023-11-19T01:35:20;14.77;;;4.70;;
42110;SDS011;27766;52.174;5.456;2023-11-19T01:37:50;14.43;;;4.80;;
42110;SDS011;27766;52.174;5.456;2023-11-19T01:40:20;16.63;;;4.70;;
42110;SDS011;27766;52.174;5.456;2023-11-19T01:42:47;16.50;;;3.45;;
42110;SDS011;27766;52.174;5.456;2023-11-19T01:45:27;20.58;;;5.07;;
42110;SDS011;27766;52.174;5.456;2023-11-19T01:47:56;18.92;;;5.05;;
42110;SDS011;27766;52.174;5.456;2023-11-19T01:50:24;15.65;;;4.38;;
42110;SDS011;27766;52.174;5.456;2023-11-19T01:52:52;23.75;;;5.75;;
42110;SDS011;27766;52.174;5.456;2023-11-19T01:55:20;23.38;;;5.75;;
42110;SDS011;27766;52.174;5.456;2023-11-19T01:57:49;25.75;;;5.70;;
42110;SDS011;27766;52.174;5.456;2023-11-19T02:00:18;20.52;;;5.25;;
42110;SDS011;27766;52.174;5.456;2023-11-19T02:02:46;28.27;;;5.53;;
42110;SDS011;27766;52.174;5.456;2023-11-19T02:05:15;13.98;;;5.03;;
42110;SDS011;27766;52.174;5.456;2023-11-19T02:07:43;19.58;;;5.32;;
42110;SDS011;27766;52.174;5.456;2023-11-19T02:10:10;17.98;;;5.10;;
42110;SDS011;27766;52.174;5.456;2023-11-19T02:12:41;17.08;;;4.97;;
42110;SDS011;27766;52.174;5.456;2023-11-19T02:15:10;22.05;;;4.85;;
42110;SDS011;27766;52.174;5.456;2023-11-19T02:17:37;22.73;;;5.50;;
42110;SDS011;27766;52.174;5.456;2023-11-19T02:20:05;15.93;;;5.07;;
42110;SDS011;27766;52.174;5.456;2023-11-19T02:22:35;23.60;;;5.15;;
42110;SDS011;27766;52.174;5.456;2023-11-19T02:25:11;13.57;;;4.93;;
42110;SDS011;27766;52.174;5.456;2023-11-19T02:27:51;26.80;;;6.25;;
42110;SDS011;27766;52.174;5.456;2023-11-19T02:30:23;19.50;;;6.40;;
42110;SDS011;27766;52.174;5.456;2023-11-19T02:32:56;21.30;;;4.78;;
42110;SDS011;27766;52.174;5.456;2023-11-19T02:35:24;23.17;;;5.78;;
42110;SDS011;27766;52.174;5.456;2023-11-19T02:37:56;20.63;;;5.40;;
42110;SDS011;27766;52.174;5.456;2023-11-19T02:40:23;24.05;;;5.57;;
42110;SDS011;27766;52.174;5.456;2023-11-19T02:42:53;19.88;;;5.75;;
42110;SDS011;27766;52.174;5.456;2023-11-19T02:45:22;20.08;;;5.03;;
42110;SDS011;27766;52.174;5.456;2023-11-19T02:47:51;22.73;;;6.07;;
42110;SDS011;27766;52.174;5.456;2023-11-19T02:50:19;21.88;;;5.95;;
42110;SDS011;27766;52.174;5.456;2023-11-19T02:52:52;18.27;;;5.35;;
42110;SDS011;27766;52.174;5.456;2023-11-19T02:55:23;23.10;;;6.18;;
42110;SDS011;27766;52.174;5.456;2023-11-19T02:57:51;29.02;;;5.95;;
42110;SDS011;27766;52.174;5.456;2023-11-19T03:00:21;25.08;;;6.72;;
42110;SDS011;27766;52.174;5.456;2023-11-19T03:03:03;24.85;;;5.40;;
42110;SDS011;27766;52.174;5.456;2023-11-19T03:05:54;29.88;;;6.95;;
42110;SDS011;27766;52.174;5.456;2023-11-19T03:08:22;27.75;;;7.45;;
42110;SDS011;27766;52.174;5.456;2023-11-19T03:10:49;20.08;;;6.03;;
42110;SDS011;27766;52.174;5.456;2023-11-19T03:13:16;32.75;;;6.72;;
42110;SDS011;27766;52.174;5.456;2023-11-19T03:15:45;23.88;;;6.70;;
42110;SDS011;27766;52.174;5.456;2023-11-19T03:18:12;27.17;;;5.88;;
42110;SDS011;27766;52.174;5.456;2023-11-19T03:20:40;26.50;;;6.43;;
42110;SDS011;27766;52.174;5.456;2023-11-19T03:23:07;28.85;;;6.88;;
42110;SDS011;27766;52.174;5.456;2023-11-19T03:25:34;30.80;;;7.32;;
42110;SDS011;27766;52.174;5.456;2023-11-19T03:28:03;24.70;;;6.63;;
42110;SDS011;27766;52.174;5.456;2023-11-19T03:30:30;31.30;;;6.57;;
42110;SDS011;27766;52.174;5.456;2023-11-19T03:33:01;35.20;;;8.18;;
42110;SDS011;27766;52.174;5.456;2023-11-19T03:35:29;22.95;;;5.95;;
42110;SDS011;27766;52.174;5.456;2023-11-19T03:37:57;22.75;;;6.35;;
42110;SDS011;27766;52.174;5.456;2023-11-19T03:40:24;31.63;;;7.15;;
42110;SDS011;27766;52.174;5.456;2023-11-19T03:42:52;31.90;;;7.53;;
42110;SDS011;27766;52.174;5.456;2023-11-19T03:45:20;20.23;;;4.90;;
42110;SDS011;27766;52.174;5.456;2023-11-19T03:47:47;36.38;;;7.57;;
42110;SDS011;27766;52.174;5.456;2023-11-19T03:50:16;29.77;;;7.50;;
42110;SDS011;27766;52.174;5.456;2023-11-19T03:52:47;23.50;;;6.32;;
42110;SDS011;27766;52.174;5.456;2023-11-19T03:55:14;22.30;;;5.72;;
42110;SDS011;27766;52.174;5.456;2023-11-19T03:57:42;27.10;;;6.75;;
42110;SDS011;27766;52.174;5.456;2023-11-19T04:00:09;28.58;;;6.68;;
42110;SDS011;27766;52.174;5.456;2023-11-19T04:02:41;23.65;;;7.07;;
42110;SDS011;27766;52.174;5.456;2023-11-19T04:05:08;23.17;;;5.95;;
42110;SDS011;27766;52.174;5.456;2023-11-19T04:07:36;28.15;;;6.18;;
42110;SDS011;27766;52.174;5.456;2023-11-19T04:10:04;31.63;;;7.15;;
42110;SDS011;27766;52.174;5.456;2023-11-19T04:12:31;30.23;;;7.30;;
42110;SDS011;27766;52.174;5.456;2023-11-19T04:14:59;26.75;;;6.47;;
42110;SDS011;27766;52.174;5.456;2023-11-19T04:17:28;32.45;;;8.27;;
42110;SDS011;27766;52.174;5.456;2023-11-19T04:19:55;33.10;;;7.05;;
42110;SDS011;27766;52.174;5.456;2023-11-19T04:22:22;38.55;;;7.35;;
42110;SDS011;27766;52.174;5.456;2023-11-19T04:24:50;21.67;;;6.90;;
42110;SDS011;27766;52.174;5.456;2023-11-19T04:27:17;29.30;;;6.38;;
42110;SDS011;27766;52.174;5.456;2023-11-19T04:29:44;28.85;;;6.72;;
42110;SDS011;27766;52.174;5.456;2023-11-19T04:32:13;31.52;;;7.85;;
42110;SDS011;27766;52.174;5.456;2023-11-19T04:34:40;35.75;;;8.10;;
42110;SDS011;27766;52.174;5.456;2023-11-19T04:37:08;26.27;;;6.60;;
42110;SDS011;27766;52.174;5.456;2023-11-19T04:39:39;34.33;;;6.80;;
42110;SDS011;27766;52.174;5.456;2023-11-19T04:42:06;26.83;;;6.82;;
42110;SDS011;27766;52.174;5.456;2023-11-19T04:44:33;24.48;;;6.30;;
42110;SDS011;27766;52.174;5.456;2023-11-19T04:47:00;27.08;;;7.55;;
42110;SDS011;27766;52.174;5.456;2023-11-19T04:49:28;30.30;;;6.60;;
42110;SDS011;27766;52.174;5.456;2023-11-19T04:51:55;28.50;;;7.55;;
42110;SDS011;27766;52.174;5.456;2023-11-19T04:54:22;33.40;;;6.82;;
42110;SDS011;27766;52.174;5.456;2023-11-19T04:56:50;25.92;;;6.50;;
42110;SDS011;27766;52.174;5.456;2023-11-19T04:59:17;21.67;;;6.55;;
42110;SDS011;27766;52.174;5.456;2023-11-19T05:01:48;21.73;;;7.95;;
42110;SDS011;27766;52.174;5.456;2023-11-19T05:04:17;32.58;;;6.80;;
42110;SDS011;27766;52.174;5.456;2023-11-19T05:06:46;28.83;;;6.50;;
42110;SDS011;27766;52.174;5.456;2023-11-19T05:09:13;33.55;;;8.23;;
42110;SDS011;27766;52.174;5.456;2023-11-19T05:11:41;29.98;;;6.22;;
42110;SDS011;27766;52.174;5.456;2023-11-19T05:14:11;20.58;;;6.03;;
42110;SDS011;27766;52.174;5.456;2023-11-19T05:16:41;33.97;;;7.47;;
42110;SDS011;27766;52.174;5.456;2023-11-19T05:19:10;30.15;;;7.10;;
42110;SDS011;27766;52.174;5.456;2023-11-19T05:21:37;34.97;;;6.97;;
42110;SDS011;27766;52.174;5.456;2023-11-19T05:24:04;28.00;;;7.22;;
42110;SDS011;27766;52.174;5.456;2023-11-19T05:26:31;20.40;;;5.85;;
42110;SDS011;27766;52.174;5.456;2023-11-19T05:28:58;25.88;;;7.38;;
42110;SDS011;27766;52.174;5.456;2023-11-19T05:31:26;28.42;;;6.90;;
42110;SDS011;27766;52.174;5.456;2023-11-19T05:33:54;27.33;;;6.68;;
42110;SDS011;27766;52.174;5.456;2023-11-19T05:36:21;22.95;;;6.13;;
42110;SDS011;27766;52.174;5.456;2023-11-19T05:38:49;25.63;;;6.82;;
42110;SDS011;27766;52.174;5.456;2023-11-19T05:41:16;26.98;;;6.13;;
42110;SDS011;27766;52.174;5.456;2023-11-19T05:43:43;29.77;;;6.43;;
42110;SDS011;27766;52.174;5.456;2023-11-19T05:46:10;35.95;;;7.28;;
42110;SDS011;27766;52.174;5.456;2023-11-19T05:48:40;28.50;;;6.90;;
42110;SDS011;27766;52.174;5.456;2023-11-19T05:51:07;21.40;;;5.85;;
42110;SDS011;27766;52.174;5.456;2023-11-19T05:53:34;25.63;;;6.38;;
42110;SDS011;27766;52.174;5.456;2023-11-19T05:56:01;23.05;;;6.15;;
42110;SDS011;27766;52.174;5.456;2023-11-19T05:58:30;29.45;;;6.72;;
42110;SDS011;27766;52.174;5.456;2023-11-19T06:00:59;26.60;;;7.28;;
42110;SDS011;27766;52.174;5.456;2023-11-19T06:03:30;23.08;;;6.03;;
42110;SDS011;27766;52.174;5.456;2023-11-19T06:05:57;27.75;;;5.68;;
42110;SDS011;27766;52.174;5.456;2023-11-19T06:08:25;25.38;;;7.82;;
42110;SDS011;27766;52.174;5.456;2023-11-19T06:10:54;22.17;;;6.53;;
42110;SDS011;27766;52.174;5.456;2023-11-19T06:13:21;24.92;;;5.57;;
42110;SDS011;27766;52.174;5.456;2023-11-19T06:15:51;19.77;;;6.70;;
42110;SDS011;27766;52.174;5.456;2023-11-19T06:18:18;24.25;;;6.85;;
42110;SDS011;27766;52.174;5.456;2023-11-19T06:20:47;28.38;;;6.47;;
42110;SDS011;27766;52.174;5.456;2023-11-19T06:23:15;24.05;;;5.63;;
42110;SDS011;27766;52.174;5.456;2023-11-19T06:25:42;21.88;;;7.18;;
42110;SDS011;27766;52.174;5.456;2023-11-19T06:28:09;28.92;;;7.95;;
42110;SDS011;27766;52.174;5.456;2023-11-19T06:30:36;26.80;;;6.40;;
42110;SDS011;27766;52.174;5.456;2023-11-19T06:33:04;24.38;;;6.40;;
42110;SDS011;27766;52.174;5.456;2023-11-19T06:35:31;22.38;;;5.97;;
42110;SDS011;27766;52.174;5.456;2023-11-19T06:38:04;19.88;;;6.07;;
42110;SDS011;27766;52.174;5.456;2023-11-19T06:40:32;30.02;;;6.55;;
42110;SDS011;27766;52.174;5.456;2023-11-19T06:42:59;23.20;;;6.10;;
42110;SDS011;27766;52.174;5.456;2023-11-19T06:45:27;26.52;;;5.88;;
42110;SDS011;27766;52.174;5.456;2023-11-19T06:47:55;20.38;;;5.85;;
42110;SDS011;27766;52.174;5.456;2023-11-19T06:50:22;19.13;;;5.85;;
42110;SDS011;27766;52.174;5.456;2023-11-19T06:52:51;18.83;;;6.30;;
42110;SDS011;27766;52.174;5.456;2023-11-19T06:55:18;24.58;;;6.70;;
42110;SDS011;27766;52.174;5.456;2023-11-19T06:57:45;31.77;;;6.97;;
42110;SDS011;27766;52.174;5.456;2023-11-19T07:00:12;22.95;;;5.35;;
42110;SDS011;27766;52.174;5.456;2023-11-19T07:02:39;31.75;;;6.50;;
42110;SDS011;27766;52.174;5.456;2023-11-19T07:05:07;25.35;;;5.65;;
42110;SDS011;27766;52.174;5.456;2023-11-19T07:07:35;29.17;;;7.18;;
42110;SDS011;27766;52.174;5.456;2023-11-19T07:10:02;43.25;;;7.10;;
42110;SDS011;27766;52.174;5.456;2023-11-19T07:12:31;21.98;;;6.30;;
42110;SDS011;27766;52.174;5.456;2023-11-19T07:14:58;22.73;;;6.00;;
42110;SDS011;27766;52.174;5.456;2023-11-19T07:17:26;29.20;;;6.05;;
42110;SDS011;27766;52.174;5.456;2023-11-19T07:19:54;23.70;;;6.07;;
42110;SDS011;27766;52.174;5.456;2023-11-19T07:22:21;22.73;;;6.30;;
42110;SDS011;27766;52.174;5.456;2023-11-19T07:24:49;28.02;;;6.63;;
42110;SDS011;27766;52.174;5.456;2023-11-19T07:27:16;20.70;;;5.53;;
42110;SDS011;27766;52.174;5.456;2023-11-19T07:29:43;36.58;;;6.53;;
42110;SDS011;27766;52.174;5.456;2023-11-19T07:32:11;30.85;;;6.78;;
42110;SDS011;27766;52.174;5.456;2023-11-19T07:34:40;30.13;;;7.82;;
42110;SDS011;27766;52.174;5.456;2023-11-19T07:37:07;25.50;;;8.00;;
42110;SDS011;27766;52.174;5.456;2023-11-19T07:39:34;31.40;;;6.82;;
42110;SDS011;27766;52.174;5.456;2023-11-19T07:42:03;25.15;;;6.43;;
42110;SDS011;27766;52.174;5.456;2023-11-19T07:44:30;17.88;;;5.30;;
42110;SDS011;27766;52.174;5.456;2023-11-19T07:46:58;33.72;;;6.30;;
42110;SDS011;27766;52.174;5.456;2023-11-19T07:49:25;23.63;;;6.25;;
42110;SDS011;27766;52.174;5.456;2023-11-19T07:51:55;27.77;;;7.03;;
42110;SDS011;27766;52.174;5.456;2023-11-19T07:54:22;32.75;;;6.80;;
42110;SDS011;27766;52.174;5.456;2023-11-19T07:56:49;21.90;;;5.45;;
42110;SDS011;27766;52.174;5.456;2023-11-19T07:59:17;23.80;;;7.20;;
42110;SDS011;27766;52.174;5.456;2023-11-19T08:01:44;37.17;;;7.22;;
42110;SDS011;27766;52.174;5.456;2023-11-19T08:04:11;19.50;;;6.50;;
42110;SDS011;27766;52.174;5.456;2023-11-19T08:06:38;23.70;;;6.45;;
42110;SDS011;27766;52.174;5.456;2023-11-19T08:09:06;24.48;;;6.72;;
42110;SDS011;27766;52.174;5.456;2023-11-19T08:11:33;25.45;;;6.63;;
42110;SDS011;27766;52.174;5.456;2023-11-19T08:14:02;28.92;;;6.82;;
42110;SDS011;27766;52.174;5.456;2023-11-19T08:16:29;21.67;;;5.93;;
42110;SDS011;27766;52.174;5.456;2023-11-19T08:18:56;19.60;;;6.88;;
42110;SDS011;27766;52.174;5.456;2023-11-19T08:21:25;27.75;;;6.30;;
42110;SDS011;27766;52.174;5.456;2023-11-19T08:23:54;32.03;;;6.97;;
42110;SDS011;27766;52.174;5.456;2023-11-19T08:26:21;27.77;;;6.32;;
42110;SDS011;27766;52.174;5.456;2023-11-19T08:28:48;32.45;;;7.65;;
42110;SDS011;27766;52.174;5.456;2023-11-19T08:31:15;33.42;;;7.57;;
42110;SDS011;27766;52.174;5.456;2023-11-19T08:33:43;27.35;;;6.00;;
42110;SDS011;27766;52.174;5.456;2023-11-19T08:36:16;31.33;;;7.07;;
42110;SDS011;27766;52.174;5.456;2023-11-19T08:38:44;31.90;;;6.75;;
42110;SDS011;27766;52.174;5.456;2023-11-19T08:41:11;25.02;;;5.80;;
42110;SDS011;27766;52.174;5.456;2023-11-19T08:43:39;23.83;;;6.05;;
42110;SDS011;27766;52.174;5.456;2023-11-19T08:46:13;32.20;;;7.40;;
42110;SDS011;27766;52.174;5.456;2023-11-19T08:51:07;30.30;;;6.90;;
42110;SDS011;27766;52.174;5.456;2023-11-19T08:53:35;23.80;;;5.95;;
42110;SDS011;27766;52.174;5.456;2023-11-19T08:56:02;27.23;;;6.97;;
42110;SDS011;27766;52.174;5.456;2023-11-19T08:58:30;25.90;;;6.47;;
42110;SDS011;27766;52.174;5.456;2023-11-19T09:00:58;22.13;;;6.20;;
42110;SDS011;27766;52.174;5.456;2023-11-19T09:03:26;31.30;;;7.15;;
42110;SDS011;27766;52.174;5.456;2023-11-19T09:05:53;24.40;;;5.85;;
42110;SDS011;27766;52.174;5.456;2023-11-19T09:08:21;23.48;;;5.78;;
42110;SDS011;27766;52.174;5.456;2023-11-19T09:10:48;20.40;;;5.88;;
42110;SDS011;27766;52.174;5.456;2023-11-19T09:13:15;26.35;;;6.32;;
42110;SDS011;27766;52.174;5.456;2023-11-19T09:15:42;24.63;;;6.50;;
42110;SDS011;27766;52.174;5.456;2023-11-19T09:18:09;28.00;;;6.60;;
42110;SDS011;27766;52.174;5.456;2023-11-19T09:20:37;22.50;;;6.57;;
42110;SDS011;27766;52.174;5.456;2023-11-19T09:23:06;27.85;;;6.65;;
42110;SDS011;27766;52.174;5.456;2023-11-19T09:25:35;29.88;;;7.68;;
42110;SDS011;27766;52.174;5.456;2023-11-19T09:28:05;28.40;;;5.53;;
42110;SDS011;27766;52.174;5.456;2023-11-19T09:30:35;25.17;;;6.13;;
42110;SDS011;27766;52.174;5.456;2023-11-19T09:33:02;26.90;;;5.78;;
42110;SDS011;27766;52.174;5.456;2023-11-19T09:35:29;24.95;;;6.20;;
42110;SDS011;27766;52.174;5.456;2023-11-19T09:37:57;21.45;;;5.80;;
42110;SDS011;27766;52.174;5.456;2023-11-19T09:40:28;27.40;;;6.28;;
42110;SDS011;27766;52.174;5.456;2023-11-19T09:42:55;21.13;;;5.95;;
42110;SDS011;27766;52.174;5.456;2023-11-19T09:45:23;20.15;;;5.18;;
42110;SDS011;27766;52.174;5.456;2023-11-19T09:47:55;19.67;;;5.38;;
42110;SDS011;27766;52.174;5.456;2023-11-19T09:50:25;24.73;;;7.40;;
42110;SDS011;27766;52.174;5.456;2023-11-19T09:52:52;28.15;;;7.03;;
42110;SDS011;27766;52.174;5.456;2023-11-19T09:55:19;28.40;;;5.82;;
42110;SDS011;27766;52.174;5.456;2023-11-19T09:57:47;30.92;;;7.28;;
42110;SDS011;27766;52.174;5.456;2023-11-19T10:00:16;25.20;;;5.28;;
42110;SDS011;27766;52.174;5.456;2023-11-19T10:02:47;23.75;;;5.68;;
42110;SDS011;27766;52.174;5.456;2023-11-19T10:05:16;27.85;;;6.22;;
42110;SDS011;27766;52.174;5.456;2023-11-19T10:07:47;27.38;;;6.00;;
42110;SDS011;27766;52.174;5.456;2023-11-19T10:10:14;21.55;;;6.43;;
42110;SDS011;27766;52.174;5.456;2023-11-19T10:12:45;23.63;;;5.75;;
42110;SDS011;27766;52.174;5.456;2023-11-19T10:15:22;19.55;;;6.07;;
42110;SDS011;27766;52.174;5.456;2023-11-19T10:17:57;26.70;;;6.07;;
42110;SDS011;27766;52.174;5.456;2023-11-19T10:20:25;27.98;;;5.85;;
42110;SDS011;27766;52.174;5.456;2023-11-19T10:22:55;20.70;;;5.60;;
42110;SDS011;27766;52.174;5.456;2023-11-19T10:25:24;20.42;;;5.13;;
42110;SDS011;27766;52.174;5.456;2023-11-19T10:27:53;23.77;;;5.57;;
42110;SDS011;27766;52.174;5.456;2023-11-19T10:30:24;27.38;;;5.72;;
42110;SDS011;27766;52.174;5.456;2023-11-19T10:33:02;24.70;;;6.88;;
42110;SDS011;27766;52.174;5.456;2023-11-19T10:35:50;39.42;;;6.03;;
42110;SDS011;27766;52.174;5.456;2023-11-19T10:38:27;24.90;;;6.05;;
42110;SDS011;27766;52.174;5.456;2023-11-19T10:40:55;17.15;;;6.25;;
42110;SDS011;27766;52.174;5.456;2023-11-19T10:43:23;23.10;;;5.78;;
42110;SDS011;27766;52.174;5.456;2023-11-19T10:45:50;17.23;;;5.63;;
42110;SDS011;27766;52.174;5.456;2023-11-19T10:48:18;24.52;;;6.25;;
42110;SDS011;27766;52.174;5.456;2023-11-19T10:50:46;19.80;;;5.90;;
42110;SDS011;27766;52.174;5.456;2023-11-19T10:53:19;26.42;;;5.68;;
42110;SDS011;27766;52.174;5.456;2023-11-19T10:55:50;19.48;;;4.65;;
42110;SDS011;27766;52.174;5.456;2023-11-19T10:58:17;28.35;;;7.25;;
42110;SDS011;27766;52.174;5.456;2023-11-19T11:00:47;23.00;;;4.88;;
42110;SDS011;27766;52.174;5.456;2023-11-19T11:03:20;29.65;;;6.15;;
42110;SDS011;27766;52.174;5.456;2023-11-19T11:05:50;22.63;;;5.45;;
42110;SDS011;27766;52.174;5.456;2023-11-19T11:08:19;21.65;;;6.15;;
42110;SDS011;27766;52.174;5.456;2023-11-19T11:10:53;25.42;;;6.80;;
42110;SDS011;27766;52.174;5.456;2023-11-19T11:13:24;25.80;;;6.57;;
42110;SDS011;27766;52.174;5.456;2023-11-19T11:15:55;18.30;;;4.55;;
42110;SDS011;27766;52.174;5.456;2023-11-19T11:18:25;12.90;;;4.45;;
42110;SDS011;27766;52.174;5.456;2023-11-19T11:20:59;24.02;;;4.72;;
42110;SDS011;27766;52.174;5.456;2023-11-19T11:29:20;20.65;;;4.57;;
42110;SDS011;27766;52.174;5.456;2023-11-19T11:35:24;14.40;;;4.85;;
42110;SDS011;27766;52.174;5.456;2023-11-19T11:38:04;30.63;;;5.57;;
42110;SDS011;27766;52.174;5.456;2023-11-19T11:40:34;17.90;;;5.35;;
42110;SDS011;27766;52.174;5.456;2023-11-19T11:43:02;21.45;;;6.05;;
42110;SDS011;27766;52.174;5.456;2023-11-19T11:45:40;12.80;;;5.00;;
42110;SDS011;27766;52.174;5.456;2023-11-19T11:48:10;21.83;;;5.25;;
42110;SDS011;27766;52.174;5.456;2023-11-19T11:50:53;19.80;;;4.68;;
42110;SDS011;27766;52.174;5.456;2023-11-19T11:53:24;17.27;;;4.78;;
42110;SDS011;27766;52.174;5.456;2023-11-19T11:55:53;21.52;;;4.68;;
42110;SDS011;27766;52.174;5.456;2023-11-19T11:58:29;19.00;;;5.40;;
42110;SDS011;27766;52.174;5.456;2023-11-19T12:01:03;28.13;;;5.90;;
42110;SDS011;27766;52.174;5.456;2023-11-19T12:03:32;24.05;;;5.40;;
42110;SDS011;27766;52.174;5.456;2023-11-19T12:06:00;22.00;;;5.93;;
42110;SDS011;27766;52.174;5.456;2023-11-19T12:08:28;27.30;;;7.22;;
42110;SDS011;27766;52.174;5.456;2023-11-19T12:10:57;23.50;;;5.72;;
42110;SDS011;27766;52.174;5.456;2023-11-19T12:13:29;26.20;;;6.28;;
42110;SDS011;27766;52.174;5.456;2023-11-19T12:16:12;28.20;;;6.07;;
42110;SDS011;27766;52.174;5.456;2023-11-19T12:18:40;16.42;;;5.30;;
42110;SDS011;27766;52.174;5.456;2023-11-19T12:21:08;23.73;;;4.90;;
42110;SDS011;27766;52.174;5.456;2023-11-19T12:23:46;20.88;;;5.47;;
42110;SDS011;27766;52.174;5.456;2023-11-19T12:26:32;13.43;;;3.75;;
42110;SDS011;27766;52.174;5.456;2023-11-19T12:29:01;22.67;;;5.55;;
42110;SDS011;27766;52.174;5.456;2023-11-19T12:31:33;20.23;;;4.45;;
42110;SDS011;27766;52.174;5.456;2023-11-19T12:34:06;15.35;;;4.00;;
42110;SDS011;27766;52.174;5.456;2023-11-19T12:36:34;18.13;;;5.13;;
42110;SDS011;27766;52.174;5.456;2023-11-19T12:39:02;21.65;;;5.18;;
42110;SDS011;27766;52.174;5.456;2023-11-19T12:41:30;22.27;;;4.95;;
42110;SDS011;27766;52.174;5.456;2023-11-19T12:44:10;15.20;;;4.95;;
42110;SDS011;27766;52.174;5.456;2023-11-19T12:46:39;23.00;;;4.97;;
42110;SDS011;27766;52.174;5.456;2023-11-19T12:49:06;15.30;;;4.55;;
42110;SDS011;27766;52.174;5.456;2023-11-19T12:51:33;18.02;;;4.82;;
42110;SDS011;27766;52.174;5.456;2023-11-19T12:54:01;16.05;;;4.88;;
42110;SDS011;27766;52.174;5.456;2023-11-19T12:56:28;14.27;;;4.93;;
42110;SDS011;27766;52.174;5.456;2023-11-19T12:58:56;19.73;;;4.28;;
42110;SDS011;27766;52.174;5.456;2023-11-19T13:01:24;20.20;;;4.43;;
42110;SDS011;27766;52.174;5.456;2023-11-19T13:03:51;20.13;;;4.78;;
42110;SDS011;27766;52.174;5.456;2023-11-19T13:06:19;22.67;;;5.30;;
42110;SDS011;27766;52.174;5.456;2023-11-19T13:08:49;28.65;;;5.10;;
42110;SDS011;27766;52.174;5.456;2023-11-19T13:11:32;14.98;;;4.43;;
42110;SDS011;27766;52.174;5.456;2023-11-19T13:14:01;24.77;;;4.80;;
42110;SDS011;27766;52.174;5.456;2023-11-19T13:16:36;13.15;;;4.50;;
42110;SDS011;27766;52.174;5.456;2023-11-19T13:19:04;19.35;;;4.20;;
42110;SDS011;27766;52.174;5.456;2023-11-19T13:21:32;26.02;;;5.25;;
42110;SDS011;27766;52.174;5.456;2023-11-19T13:23:59;15.88;;;4.55;;
42110;SDS011;27766;52.174;5.456;2023-11-19T13:26:27;22.10;;;5.45;;
42110;SDS011;27766;52.174;5.456;2023-11-19T13:28:55;13.40;;;4.85;;
42110;SDS011;27766;52.174;5.456;2023-11-19T13:31:22;27.65;;;5.50;;
42110;SDS011;27766;52.174;5.456;2023-11-19T13:33:50;24.83;;;4.50;;
42110;SDS011;27766;52.174;5.456;2023-11-19T13:36:17;19.98;;;4.75;;
42110;SDS011;27766;52.174;5.456;2023-11-19T13:38:44;13.70;;;5.13;;
42110;SDS011;27766;52.174;5.456;2023-11-19T13:41:12;19.92;;;6.07;;
42110;SDS011;27766;52.174;5.456;2023-11-19T13:43:40;22.55;;;5.00;;
42110;SDS011;27766;52.174;5.456;2023-11-19T13:46:08;17.10;;;5.22;;
42110;SDS011;27766;52.174;5.456;2023-11-19T13:48:40;20.40;;;4.47;;
42110;SDS011;27766;52.174;5.456;2023-11-19T13:51:07;19.27;;;5.50;;
42110;SDS011;27766;52.174;5.456;2023-11-19T13:53:36;19.42;;;5.05;;
42110;SDS011;27766;52.174;5.456;2023-11-19T13:56:07;20.90;;;5.40;;
42110;SDS011;27766;52.174;5.456;2023-11-19T13:58:34;21.67;;;5.68;;
42110;SDS011;27766;52.174;5.456;2023-11-19T14:01:02;17.13;;;5.03;;
42110;SDS011;27766;52.174;5.456;2023-11-19T14:03:29;18.73;;;5.15;;
42110;SDS011;27766;52.174;5.456;2023-11-19T14:05:56;11.82;;;4.15;;
42110;SDS011;27766;52.174;5.456;2023-11-19T14:08:25;15.15;;;4.18;;
42110;SDS011;27766;52.174;5.456;2023-11-19T14:10:52;17.67;;;4.78;;
42110;SDS011;27766;52.174;5.456;2023-11-19T14:13:23;10.45;;;3.58;;
42110;SDS011;27766;52.174;5.456;2023-11-19T14:15:51;20.80;;;5.90;;
42110;SDS011;27766;52.174;5.456;2023-11-19T14:18:18;20.17;;;6.00;;
42110;SDS011;27766;52.174;5.456;2023-11-19T14:20:45;17.25;;;4.93;;
42110;SDS011;27766;52.174;5.456;2023-11-19T14:23:12;15.88;;;4.97;;
42110;SDS011;27766;52.174;5.456;2023-11-19T14:25:40;15.02;;;4.00;;
42110;SDS011;27766;52.174;5.456;2023-11-19T14:28:07;17.95;;;4.82;;
42110;SDS011;27766;52.174;5.456;2023-11-19T14:30:35;18.35;;;3.92;;
42110;SDS011;27766;52.174;5.456;2023-11-19T14:33:02;12.18;;;4.45;;
42110;SDS011;27766;52.174;5.456;2023-11-19T14:35:30;19.02;;;3.70;;
42110;SDS011;27766;52.174;5.456;2023-11-19T14:37:59;16.17;;;4.88;;
42110;SDS011;27766;52.174;5.456;2023-11-19T14:40:27;23.77;;;5.60;;
42110;SDS011;27766;52.174;5.456;2023-11-19T14:42:57;21.33;;;5.20;;
42110;SDS011;27766;52.174;5.456;2023-11-19T14:45:24;22.95;;;5.43;;
42110;SDS011;27766;52.174;5.456;2023-11-19T14:47:54;20.80;;;5.78;;
42110;SDS011;27766;52.174;5.456;2023-11-19T14:50:21;16.40;;;4.80;;
42110;SDS011;27766;52.174;5.456;2023-11-19T14:52:48;11.68;;;4.45;;
42110;SDS011;27766;52.174;5.456;2023-11-19T14:55:15;16.20;;;5.10;;
42110;SDS011;27766;52.174;5.456;2023-11-19T14:57:43;18.48;;;4.75;;